sensor_id;sensor_type;location;lat;lon;timestamp;pressure;altitude;pressure_sealevel;temperature;humidity
69707;BME280;56975;55.726;37.566;2023-11-19T00:00:00;100630.0;;;-6.1;73.1
69707;BME280;56975;55.726;37.566;2023-11-19T00:05:00;100630.0;;;-6.0;72.8
69707;BME280;56975;55.726;37.566;2023-11-19T00:10:08;100620.0;;;-6.2;73.1
69707;BME280;56975;55.726;37.566;2023-11-19T00:15:00;100610.0;;;-6.3;73.5
69707;BME280;56975;55.726;37.566;2023-11-19T00:20:00;100610.0;;;-6.6;74.7
69707;BME280;56975;55.726;37.566;2023-11-19T00:25:08;100610.0;;;-6.7;75.2
69707;BME280;56975;55.726;37.566;2023-11-19T00:30:00;100610.0;;;-6.8;75.3
69707;BME280;56975;55.726;37.566;2023-11-19T00:35:00;100610.0;;;-6.8;75.4
69707;BME280;56975;55.726;37.566;2023-11-19T00:40:08;100600.0;;;-6.9;76.0
69707;BME280;56975;55.726;37.566;2023-11-19T00:45:00;100600.0;;;-7.0;76.4
69707;BME280;56975;55.726;37.566;2023-11-19T00:50:00;100600.0;;;-7.1;76.8
69707;BME280;56975;55.726;37.566;2023-11-19T00:55:07;100600.0;;;-7.1;77.3
69707;BME280;56975;55.726;37.566;2023-11-19T01:00:00;100580.0;;;-7.2;77.9
69707;BME280;56975;55.726;37.566;2023-11-19T01:05:00;100590.0;;;-7.2;78.4
69707;BME280;56975;55.726;37.566;2023-11-19T01:10:07;100580.0;;;-7.3;78.9
69707;BME280;56975;55.726;37.566;2023-11-19T01:15:00;100580.0;;;-7.3;79.1
69707;BME280;56975;55.726;37.566;2023-11-19T01:20:00;100570.0;;;-7.3;79.2
69707;BME280;56975;55.726;37.566;2023-11-19T01:25:07;100560.0;;;-7.3;79.4
69707;BME280;56975;55.726;37.566;2023-11-19T01:30:00;100560.0;;;-7.3;79.4
69707;BME280;56975;55.726;37.566;2023-11-19T01:35:00;100550.0;;;-7.4;79.5
69707;BME280;56975;55.726;37.566;2023-11-19T01:40:08;100550.0;;;-7.4;79.6
69707;BME280;56975;55.726;37.566;2023-11-19T01:50:01;100550.0;;;-7.3;78.8
69707;BME280;56975;55.726;37.566;2023-11-19T01:55:07;100550.0;;;-7.4;79.1
69707;BME280;56975;55.726;37.566;2023-11-19T02:00:00;100540.0;;;-7.4;79.1
69707;BME280;56975;55.726;37.566;2023-11-19T02:05:00;100550.0;;;-7.4;79.1
69707;BME280;56975;55.726;37.566;2023-11-19T02:10:08;100550.0;;;-7.4;79.5
69707;BME280;56975;55.726;37.566;2023-11-19T02:15:00;100550.0;;;-7.5;79.9
69707;BME280;56975;55.726;37.566;2023-11-19T02:20:00;100550.0;;;-7.5;80.3
69707;BME280;56975;55.726;37.566;2023-11-19T02:25:09;100550.0;;;-7.6;80.8
69707;BME280;56975;55.726;37.566;2023-11-19T02:30:00;100540.0;;;-7.6;81.1
69707;BME280;56975;55.726;37.566;2023-11-19T02:35:00;100530.0;;;-7.6;81.4
69707;BME280;56975;55.726;37.566;2023-11-19T02:40:07;100540.0;;;-7.5;81.6
69707;BME280;56975;55.726;37.566;2023-11-19T02:45:00;100540.0;;;-7.6;81.8
69707;BME280;56975;55.726;37.566;2023-11-19T02:50:00;100540.0;;;-7.6;81.5
69707;BME280;56975;55.726;37.566;2023-11-19T02:55:07;100530.0;;;-7.6;81.7
69707;BME280;56975;55.726;37.566;2023-11-19T03:00:00;100530.0;;;-7.5;81.5
69707;BME280;56975;55.726;37.566;2023-11-19T03:05:00;100530.0;;;-7.6;81.7
69707;BME280;56975;55.726;37.566;2023-11-19T03:10:07;100530.0;;;-7.6;81.7
69707;BME280;56975;55.726;37.566;2023-11-19T03:15:00;100520.0;;;-7.6;81.5
69707;BME280;56975;55.726;37.566;2023-11-19T03:20:00;100520.0;;;-7.6;81.4
69707;BME280;56975;55.726;37.566;2023-11-19T03:25:08;100520.0;;;-7.5;81.3
69707;BME280;56975;55.726;37.566;2023-11-19T03:30:00;100520.0;;;-7.4;81.2
69707;BME280;56975;55.726;37.566;2023-11-19T03:35:00;100520.0;;;-7.2;80.8
69707;BME280;56975;55.726;37.566;2023-11-19T03:40:08;100510.0;;;-7.1;80.7
69707;BME280;56975;55.726;37.566;2023-11-19T03:45:00;100520.0;;;-7.0;79.2
69707;BME280;56975;55.726;37.566;2023-11-19T03:50:00;100500.0;;;-6.9;77.7
69707;BME280;56975;55.726;37.566;2023-11-19T03:55:07;100500.0;;;-6.8;77.5
69707;BME280;56975;55.726;37.566;2023-11-19T04:00:00;100490.0;;;-6.7;77.4
69707;BME280;56975;55.726;37.566;2023-11-19T04:05:00;100490.0;;;-6.6;77.3
69707;BME280;56975;55.726;37.566;2023-11-19T04:10:08;100480.0;;;-6.6;77.2
69707;BME280;56975;55.726;37.566;2023-11-19T04:15:00;100460.0;;;-6.5;77.0
69707;BME280;56975;55.726;37.566;2023-11-19T04:20:00;100460.0;;;-6.5;75.9
69707;BME280;56975;55.726;37.566;2023-11-19T04:25:08;100460.0;;;-6.4;75.8
69707;BME280;56975;55.726;37.566;2023-11-19T04:30:00;100450.0;;;-6.4;74.1
69707;BME280;56975;55.726;37.566;2023-11-19T04:35:00;100450.0;;;-6.5;75.1
69707;BME280;56975;55.726;37.566;2023-11-19T04:40:07;100460.0;;;-6.5;73.8
69707;BME280;56975;55.726;37.566;2023-11-19T04:45:00;100470.0;;;-6.5;73.9
69707;BME280;56975;55.726;37.566;2023-11-19T04:50:00;100470.0;;;-6.5;73.9
69707;BME280;56975;55.726;37.566;2023-11-19T04:55:07;100470.0;;;-6.6;73.7
69707;BME280;56975;55.726;37.566;2023-11-19T05:00:00;100470.0;;;-6.7;74.3
69707;BME280;56975;55.726;37.566;2023-11-19T05:05:00;100470.0;;;-6.7;76.8
69707;BME280;56975;55.726;37.566;2023-11-19T05:10:08;100470.0;;;-6.6;77.3
69707;BME280;56975;55.726;37.566;2023-11-19T05:15:00;100480.0;;;-6.6;78.1
69707;BME280;56975;55.726;37.566;2023-11-19T05:20:00;100470.0;;;-6.8;78.3
69707;BME280;56975;55.726;37.566;2023-11-19T05:25:08;100480.0;;;-6.5;77.7
69707;BME280;56975;55.726;37.566;2023-11-19T05:30:00;100480.0;;;-6.6;77.4
69707;BME280;56975;55.726;37.566;2023-11-19T05:35:00;100490.0;;;-6.5;77.0
69707;BME280;56975;55.726;37.566;2023-11-19T05:40:08;100480.0;;;-6.6;77.5
69707;BME280;56975;55.726;37.566;2023-11-19T05:45:00;100480.0;;;-6.4;76.9
69707;BME280;56975;55.726;37.566;2023-11-19T05:50:00;100480.0;;;-6.5;76.9
69707;BME280;56975;55.726;37.566;2023-11-19T05:55:07;100480.0;;;-6.4;76.0
69707;BME280;56975;55.726;37.566;2023-11-19T06:00:00;100490.0;;;-6.4;75.8
69707;BME280;56975;55.726;37.566;2023-11-19T06:05:00;100480.0;;;-6.3;74.3
69707;BME280;56975;55.726;37.566;2023-11-19T06:10:08;100470.0;;;-6.4;74.8
69707;BME280;56975;55.726;37.566;2023-11-19T06:15:00;100470.0;;;-6.2;73.7
69707;BME280;56975;55.726;37.566;2023-11-19T06:20:00;100470.0;;;-6.4;73.7
69707;BME280;56975;55.726;37.566;2023-11-19T06:25:08;100470.0;;;-6.3;72.6
69707;BME280;56975;55.726;37.566;2023-11-19T06:30:00;100470.0;;;-6.2;72.1
69707;BME280;56975;55.726;37.566;2023-11-19T06:35:00;100470.0;;;-6.2;71.2
69707;BME280;56975;55.726;37.566;2023-11-19T06:40:08;100460.0;;;-6.2;70.8
69707;BME280;56975;55.726;37.566;2023-11-19T06:45:00;100460.0;;;-6.0;70.7
69707;BME280;56975;55.726;37.566;2023-11-19T06:50:00;100460.0;;;-6.2;70.7
69707;BME280;56975;55.726;37.566;2023-11-19T06:55:08;100460.0;;;-6.2;70.0
69707;BME280;56975;55.726;37.566;2023-11-19T07:00:00;100450.0;;;-6.3;71.2
69707;BME280;56975;55.726;37.566;2023-11-19T07:05:00;100460.0;;;-6.1;72.5
69707;BME280;56975;55.726;37.566;2023-11-19T07:10:07;100470.0;;;-6.5;73.9
69707;BME280;56975;55.726;37.566;2023-11-19T07:15:00;100460.0;;;-6.2;72.0
69707;BME280;56975;55.726;37.566;2023-11-19T07:20:00;100460.0;;;-6.4;73.7
69707;BME280;56975;55.726;37.566;2023-11-19T07:25:08;100460.0;;;-6.5;75.2
69707;BME280;56975;55.726;37.566;2023-11-19T07:30:00;100470.0;;;-6.3;73.4
69707;BME280;56975;55.726;37.566;2023-11-19T07:35:00;100470.0;;;-6.3;74.6
69707;BME280;56975;55.726;37.566;2023-11-19T07:40:08;100460.0;;;-6.1;74.2
69707;BME280;56975;55.726;37.566;2023-11-19T07:45:00;100460.0;;;-6.3;73.4
69707;BME280;56975;55.726;37.566;2023-11-19T07:50:00;100460.0;;;-6.6;74.2
69707;BME280;56975;55.726;37.566;2023-11-19T07:55:08;100460.0;;;-6.3;73.8
69707;BME280;56975;55.726;37.566;2023-11-19T08:00:00;100470.0;;;-6.2;73.6
69707;BME280;56975;55.726;37.566;2023-11-19T08:05:00;100460.0;;;-6.3;72.9
69707;BME280;56975;55.726;37.566;2023-11-19T08:10:07;100450.0;;;-6.0;72.5
69707;BME280;56975;55.726;37.566;2023-11-19T08:15:00;100450.0;;;-6.0;73.0
69707;BME280;56975;55.726;37.566;2023-11-19T08:20:00;100440.0;;;-6.2;73.5
69707;BME280;56975;55.726;37.566;2023-11-19T08:25:08;100440.0;;;-6.2;76.0
69707;BME280;56975;55.726;37.566;2023-11-19T08:30:00;100430.0;;;-6.2;78.3
69707;BME280;56975;55.726;37.566;2023-11-19T08:35:00;100430.0;;;-5.8;76.8
69707;BME280;56975;55.726;37.566;2023-11-19T08:40:08;100430.0;;;-6.2;77.5
69707;BME280;56975;55.726;37.566;2023-11-19T08:45:00;100420.0;;;-6.1;77.3
69707;BME280;56975;55.726;37.566;2023-11-19T08:50:00;100430.0;;;-6.2;76.7
69707;BME280;56975;55.726;37.566;2023-11-19T08:55:07;100430.0;;;-6.3;77.8
69707;BME280;56975;55.726;37.566;2023-11-19T09:00:00;100440.0;;;-6.3;77.3
69707;BME280;56975;55.726;37.566;2023-11-19T09:05:00;100440.0;;;-6.3;76.2
69707;BME280;56975;55.726;37.566;2023-11-19T09:10:08;100430.0;;;-6.7;77.5
69707;BME280;56975;55.726;37.566;2023-11-19T09:15:00;100420.0;;;-6.8;76.8
69707;BME280;56975;55.726;37.566;2023-11-19T09:20:00;100420.0;;;-6.6;77.6
69707;BME280;56975;55.726;37.566;2023-11-19T09:25:07;100420.0;;;-6.3;75.8
69707;BME280;56975;55.726;37.566;2023-11-19T09:40:08;100390.0;;;-6.2;72.8
69707;BME280;56975;55.726;37.566;2023-11-19T09:45:02;100390.0;;;-6.2;72.6
69707;BME280;56975;55.726;37.566;2023-11-19T09:50:00;100370.0;;;-6.3;73.7
69707;BME280;56975;55.726;37.566;2023-11-19T09:55:08;100370.0;;;-6.2;73.4
69707;BME280;56975;55.726;37.566;2023-11-19T10:00:01;100360.0;;;-6.0;72.1
69707;BME280;56975;55.726;37.566;2023-11-19T10:05:04;100360.0;;;-6.1;72.2
69707;BME280;56975;55.726;37.566;2023-11-19T10:10:08;100360.0;;;-5.8;69.8
69707;BME280;56975;55.726;37.566;2023-11-19T10:15:00;100350.0;;;-6.1;70.2
69707;BME280;56975;55.726;37.566;2023-11-19T10:20:00;100350.0;;;-6.2;70.8
69707;BME280;56975;55.726;37.566;2023-11-19T10:25:11;100350.0;;;-6.1;70.0
69707;BME280;56975;55.726;37.566;2023-11-19T10:30:00;100340.0;;;-6.4;70.2
69707;BME280;56975;55.726;37.566;2023-11-19T10:35:08;100330.0;;;-6.4;70.0
69707;BME280;56975;55.726;37.566;2023-11-19T10:40:08;100340.0;;;-6.2;69.1
69707;BME280;56975;55.726;37.566;2023-11-19T10:45:00;100350.0;;;-6.4;69.3
69707;BME280;56975;55.726;37.566;2023-11-19T10:50:00;100350.0;;;-6.2;68.7
69707;BME280;56975;55.726;37.566;2023-11-19T10:55:07;100350.0;;;-6.1;68.9
69707;BME280;56975;55.726;37.566;2023-11-19T11:00:01;100340.0;;;-5.8;65.1
69707;BME280;56975;55.726;37.566;2023-11-19T11:05:01;100350.0;;;-5.5;64.4
69707;BME280;56975;55.726;37.566;2023-11-19T11:10:07;100340.0;;;-6.3;65.3
69707;BME280;56975;55.726;37.566;2023-11-19T11:15:01;100340.0;;;-6.3;65.8
69707;BME280;56975;55.726;37.566;2023-11-19T11:20:00;100330.0;;;-6.2;65.7
69707;BME280;56975;55.726;37.566;2023-11-19T11:25:12;100330.0;;;-5.7;64.2
69707;BME280;56975;55.726;37.566;2023-11-19T11:30:14;100330.0;;;-6.0;64.4
69707;BME280;56975;55.726;37.566;2023-11-19T11:35:12;100330.0;;;-5.3;63.4
69707;BME280;56975;55.726;37.566;2023-11-19T11:40:08;100330.0;;;-5.5;63.1
69707;BME280;56975;55.726;37.566;2023-11-19T11:45:02;100320.0;;;-6.1;64.5
69707;BME280;56975;55.726;37.566;2023-11-19T11:50:05;100330.0;;;-6.1;65.2
69707;BME280;56975;55.726;37.566;2023-11-19T11:55:08;100320.0;;;-6.4;66.0
69707;BME280;56975;55.726;37.566;2023-11-19T12:00:02;100320.0;;;-6.6;66.5
69707;BME280;56975;55.726;37.566;2023-11-19T12:05:00;100320.0;;;-6.1;65.5
69707;BME280;56975;55.726;37.566;2023-11-19T12:10:08;100330.0;;;-6.1;65.5
69707;BME280;56975;55.726;37.566;2023-11-19T12:15:02;100320.0;;;-5.6;63.8
69707;BME280;56975;55.726;37.566;2023-11-19T12:20:01;100320.0;;;-5.8;63.8
69707;BME280;56975;55.726;37.566;2023-11-19T12:25:08;100320.0;;;-6.2;66.0
69707;BME280;56975;55.726;37.566;2023-11-19T12:30:01;100310.0;;;-6.2;66.9
69707;BME280;56975;55.726;37.566;2023-11-19T12:35:00;100310.0;;;-6.4;67.3
69707;BME280;56975;55.726;37.566;2023-11-19T12:40:12;100300.0;;;-6.3;67.0
69707;BME280;56975;55.726;37.566;2023-11-19T12:45:00;100300.0;;;-6.2;67.1
69707;BME280;56975;55.726;37.566;2023-11-19T12:50:00;100290.0;;;-6.3;66.9
69707;BME280;56975;55.726;37.566;2023-11-19T13:00:00;100290.0;;;-6.2;66.3
69707;BME280;56975;55.726;37.566;2023-11-19T13:10:01;100280.0;;;-6.3;66.8
69707;BME280;56975;55.726;37.566;2023-11-19T13:15:00;100270.0;;;-6.2;66.2
69707;BME280;56975;55.726;37.566;2023-11-19T13:20:08;100260.0;;;-5.9;65.2
69707;BME280;56975;55.726;37.566;2023-11-19T13:25:00;100260.0;;;-6.1;65.5
69707;BME280;56975;55.726;37.566;2023-11-19T13:30:04;100250.0;;;-6.1;65.2
69707;BME280;56975;55.726;37.566;2023-11-19T13:35:07;100250.0;;;-6.1;65.3
69707;BME280;56975;55.726;37.566;2023-11-19T13:40:00;100250.0;;;-6.3;66.4
69707;BME280;56975;55.726;37.566;2023-11-19T13:45:00;100240.0;;;-6.5;66.9
69707;BME280;56975;55.726;37.566;2023-11-19T13:50:08;100240.0;;;-6.6;67.5
69707;BME280;56975;55.726;37.566;2023-11-19T13:55:00;100240.0;;;-6.8;68.5
69707;BME280;56975;55.726;37.566;2023-11-19T14:00:02;100250.0;;;-6.7;69.2
69707;BME280;56975;55.726;37.566;2023-11-19T14:05:08;100250.0;;;-6.8;69.1
69707;BME280;56975;55.726;37.566;2023-11-19T14:10:00;100250.0;;;-6.9;69.4
69707;BME280;56975;55.726;37.566;2023-11-19T14:15:00;100230.0;;;-6.9;70.3
69707;BME280;56975;55.726;37.566;2023-11-19T14:20:07;100240.0;;;-6.9;70.2
69707;BME280;56975;55.726;37.566;2023-11-19T14:25:00;100230.0;;;-6.9;70.7
69707;BME280;56975;55.726;37.566;2023-11-19T14:30:00;100240.0;;;-7.0;71.1
69707;BME280;56975;55.726;37.566;2023-11-19T14:35:08;100240.0;;;-7.0;71.3
69707;BME280;56975;55.726;37.566;2023-11-19T14:40:01;100240.0;;;-7.0;71.3
69707;BME280;56975;55.726;37.566;2023-11-19T14:45:00;100240.0;;;-7.1;71.2
69707;BME280;56975;55.726;37.566;2023-11-19T14:50:07;100240.0;;;-7.2;71.1
69707;BME280;56975;55.726;37.566;2023-11-19T14:55:00;100230.0;;;-7.2;71.0
69707;BME280;56975;55.726;37.566;2023-11-19T15:00:00;100240.0;;;-6.3;67.8
69707;BME280;56975;55.726;37.566;2023-11-19T15:05:08;100230.0;;;-7.0;70.6
69707;BME280;56975;55.726;37.566;2023-11-19T15:10:00;100230.0;;;-6.9;70.9
69707;BME280;56975;55.726;37.566;2023-11-19T15:15:00;100230.0;;;-7.2;70.6
69707;BME280;56975;55.726;37.566;2023-11-19T15:20:08;100220.0;;;-6.7;70.7
69707;BME280;56975;55.726;37.566;2023-11-19T15:25:00;100210.0;;;-6.4;68.6
69707;BME280;56975;55.726;37.566;2023-11-19T15:30:00;100210.0;;;-6.7;69.7
69707;BME280;56975;55.726;37.566;2023-11-19T15:35:07;100220.0;;;-6.7;70.7
69707;BME280;56975;55.726;37.566;2023-11-19T15:40:00;100200.0;;;-6.4;70.4
69707;BME280;56975;55.726;37.566;2023-11-19T15:45:00;100200.0;;;-6.5;69.8
69707;BME280;56975;55.726;37.566;2023-11-19T15:50:07;100200.0;;;-6.9;72.6
69707;BME280;56975;55.726;37.566;2023-11-19T15:55:00;100200.0;;;-6.9;72.7
69707;BME280;56975;55.726;37.566;2023-11-19T16:00:00;100200.0;;;-7.0;74.0
69707;BME280;56975;55.726;37.566;2023-11-19T16:05:07;100200.0;;;-6.7;73.6
69707;BME280;56975;55.726;37.566;2023-11-19T16:10:00;100190.0;;;-6.8;74.1
69707;BME280;56975;55.726;37.566;2023-11-19T16:15:00;100190.0;;;-6.7;73.2
69707;BME280;56975;55.726;37.566;2023-11-19T16:20:08;100190.0;;;-7.2;73.7
69707;BME280;56975;55.726;37.566;2023-11-19T16:25:00;100190.0;;;-6.9;72.6
69707;BME280;56975;55.726;37.566;2023-11-19T16:30:00;100180.0;;;-7.2;73.0
69707;BME280;56975;55.726;37.566;2023-11-19T16:35:08;100190.0;;;-7.2;73.1
69707;BME280;56975;55.726;37.566;2023-11-19T16:40:00;100190.0;;;-7.2;72.7
69707;BME280;56975;55.726;37.566;2023-11-19T16:45:00;100190.0;;;-7.2;72.8
69707;BME280;56975;55.726;37.566;2023-11-19T16:50:08;100190.0;;;-7.2;72.8
69707;BME280;56975;55.726;37.566;2023-11-19T16:55:00;100190.0;;;-7.3;72.6
69707;BME280;56975;55.726;37.566;2023-11-19T17:00:00;100190.0;;;-7.3;72.8
69707;BME280;56975;55.726;37.566;2023-11-19T17:05:08;100180.0;;;-7.4;72.5
69707;BME280;56975;55.726;37.566;2023-11-19T17:10:00;100170.0;;;-7.4;72.7
69707;BME280;56975;55.726;37.566;2023-11-19T17:15:00;100170.0;;;-7.2;72.4
69707;BME280;56975;55.726;37.566;2023-11-19T17:20:08;100180.0;;;-7.3;72.0
69707;BME280;56975;55.726;37.566;2023-11-19T17:25:01;100160.0;;;-7.2;70.8
69707;BME280;56975;55.726;37.566;2023-11-19T17:30:00;100170.0;;;-7.3;71.9
69707;BME280;56975;55.726;37.566;2023-11-19T17:35:08;100160.0;;;-7.5;72.1
69707;BME280;56975;55.726;37.566;2023-11-19T17:40:00;100170.0;;;-7.4;71.4
69707;BME280;56975;55.726;37.566;2023-11-19T17:45:00;100160.0;;;-7.4;71.5
69707;BME280;56975;55.726;37.566;2023-11-19T17:50:08;100160.0;;;-7.3;72.0
69707;BME280;56975;55.726;37.566;2023-11-19T17:55:00;100150.0;;;-7.2;72.0
69707;BME280;56975;55.726;37.566;2023-11-19T18:00:00;100150.0;;;-7.3;72.3
69707;BME280;56975;55.726;37.566;2023-11-19T18:05:08;100150.0;;;-7.2;71.9
69707;BME280;56975;55.726;37.566;2023-11-19T18:10:00;100150.0;;;-7.5;71.8
69707;BME280;56975;55.726;37.566;2023-11-19T18:15:00;100150.0;;;-7.4;72.5
69707;BME280;56975;55.726;37.566;2023-11-19T18:20:08;100150.0;;;-7.4;73.0
69707;BME280;56975;55.726;37.566;2023-11-19T18:25:00;100150.0;;;-7.5;73.0
69707;BME280;56975;55.726;37.566;2023-11-19T18:30:00;100160.0;;;-7.6;73.3
69707;BME280;56975;55.726;37.566;2023-11-19T18:35:07;100150.0;;;-7.7;73.6
69707;BME280;56975;55.726;37.566;2023-11-19T18:40:00;100150.0;;;-7.7;73.9
69707;BME280;56975;55.726;37.566;2023-11-19T18:45:00;100150.0;;;-7.7;74.3
69707;BME280;56975;55.726;37.566;2023-11-19T18:50:07;100160.0;;;-7.7;74.2
69707;BME280;56975;55.726;37.566;2023-11-19T18:55:00;100150.0;;;-7.7;73.8
69707;BME280;56975;55.726;37.566;2023-11-19T19:00:00;100150.0;;;-7.7;74.1
69707;BME280;56975;55.726;37.566;2023-11-19T19:05:07;100160.0;;;-7.7;73.8
69707;BME280;56975;55.726;37.566;2023-11-19T19:10:00;100160.0;;;-7.8;74.0
69707;BME280;56975;55.726;37.566;2023-11-19T19:15:00;100150.0;;;-7.9;74.0
69707;BME280;56975;55.726;37.566;2023-11-19T19:20:08;100150.0;;;-7.8;73.6
69707;BME280;56975;55.726;37.566;2023-11-19T19:25:00;100140.0;;;-7.7;73.1
69707;BME280;56975;55.726;37.566;2023-11-19T19:30:00;100140.0;;;-7.9;73.3
69707;BME280;56975;55.726;37.566;2023-11-19T19:35:07;100140.0;;;-7.9;73.3
69707;BME280;56975;55.726;37.566;2023-11-19T19:40:00;100140.0;;;-7.9;73.4
69707;BME280;56975;55.726;37.566;2023-11-19T19:45:00;100150.0;;;-8.1;74.0
69707;BME280;56975;55.726;37.566;2023-11-19T19:50:08;100150.0;;;-8.1;73.8
69707;BME280;56975;55.726;37.566;2023-11-19T19:55:00;100160.0;;;-8.1;74.0
69707;BME280;56975;55.726;37.566;2023-11-19T20:00:00;100150.0;;;-8.1;74.3
69707;BME280;56975;55.726;37.566;2023-11-19T20:05:08;100150.0;;;-8.1;74.3
69707;BME280;56975;55.726;37.566;2023-11-19T20:10:00;100150.0;;;-8.1;74.3
69707;BME280;56975;55.726;37.566;2023-11-19T20:15:00;100150.0;;;-8.1;74.7
69707;BME280;56975;55.726;37.566;2023-11-19T20:20:08;100150.0;;;-8.2;74.6
69707;BME280;56975;55.726;37.566;2023-11-19T20:25:00;100150.0;;;-8.3;75.4
69707;BME280;56975;55.726;37.566;2023-11-19T20:30:00;100160.0;;;-8.3;75.4
69707;BME280;56975;55.726;37.566;2023-11-19T20:35:07;100150.0;;;-8.3;75.6
69707;BME280;56975;55.726;37.566;2023-11-19T20:40:00;100150.0;;;-8.3;75.9
69707;BME280;56975;55.726;37.566;2023-11-19T20:45:00;100150.0;;;-8.3;75.9
69707;BME280;56975;55.726;37.566;2023-11-19T20:50:07;100140.0;;;-8.4;76.4
69707;BME280;56975;55.726;37.566;2023-11-19T20:55:00;100140.0;;;-8.3;76.3
69707;BME280;56975;55.726;37.566;2023-11-19T21:00:00;100140.0;;;-8.2;75.7
69707;BME280;56975;55.726;37.566;2023-11-19T21:05:08;100140.0;;;-8.3;75.5
69707;BME280;56975;55.726;37.566;2023-11-19T21:10:00;100130.0;;;-8.2;75.1
69707;BME280;56975;55.726;37.566;2023-11-19T21:15:00;100120.0;;;-8.3;75.0
69707;BME280;56975;55.726;37.566;2023-11-19T21:20:08;100120.0;;;-8.4;75.6
69707;BME280;56975;55.726;37.566;2023-11-19T21:25:00;100110.0;;;-8.3;75.5
69707;BME280;56975;55.726;37.566;2023-11-19T21:30:00;100100.0;;;-8.4;75.8
69707;BME280;56975;55.726;37.566;2023-11-19T21:35:07;100100.0;;;-8.3;75.7
69707;BME280;56975;55.726;37.566;2023-11-19T21:40:00;100090.0;;;-8.4;76.0
69707;BME280;56975;55.726;37.566;2023-11-19T21:45:00;100090.0;;;-8.4;76.2
69707;BME280;56975;55.726;37.566;2023-11-19T21:50:07;100080.0;;;-8.3;75.9
69707;BME280;56975;55.726;37.566;2023-11-19T21:55:00;100090.0;;;-8.3;75.6
69707;BME280;56975;55.726;37.566;2023-11-19T22:00:00;100080.0;;;-8.3;75.7
69707;BME280;56975;55.726;37.566;2023-11-19T22:05:08;100080.0;;;-8.3;75.8
69707;BME280;56975;55.726;37.566;2023-11-19T22:10:00;100080.0;;;-8.3;76.0
69707;BME280;56975;55.726;37.566;2023-11-19T22:15:00;100080.0;;;-8.3;76.6
69707;BME280;56975;55.726;37.566;2023-11-19T22:20:08;100080.0;;;-8.4;77.2
69707;BME280;56975;55.726;37.566;2023-11-19T22:25:00;100070.0;;;-8.2;77.4
69707;BME280;56975;55.726;37.566;2023-11-19T22:30:00;100070.0;;;-8.1;77.0
69707;BME280;56975;55.726;37.566;2023-11-19T22:35:08;100070.0;;;-7.9;76.8
69707;BME280;56975;55.726;37.566;2023-11-19T22:40:00;100070.0;;;-7.7;76.6
69707;BME280;56975;55.726;37.566;2023-11-19T22:45:00;100060.0;;;-8.0;77.9
69707;BME280;56975;55.726;37.566;2023-11-19T22:50:08;100050.0;;;-7.9;78.2
69707;BME280;56975;55.726;37.566;2023-11-19T22:55:00;100050.0;;;-7.6;77.4
69707;BME280;56975;55.726;37.566;2023-11-19T23:00:00;100050.0;;;-7.6;77.2
69707;BME280;56975;55.726;37.566;2023-11-19T23:05:07;100050.0;;;-7.4;76.8
69707;BME280;56975;55.726;37.566;2023-11-19T23:10:00;100050.0;;;-7.3;76.5
69707;BME280;56975;55.726;37.566;2023-11-19T23:15:00;100050.0;;;-7.2;76.3
69707;BME280;56975;55.726;37.566;2023-11-19T23:20:08;100050.0;;;-7.2;75.8
69707;BME280;56975;55.726;37.566;2023-11-19T23:25:00;100050.0;;;-7.0;75.5
69707;BME280;56975;55.726;37.566;2023-11-19T23:30:00;100050.0;;;-7.0;75.5
69707;BME280;56975;55.726;37.566;2023-11-19T23:35:07;100050.0;;;-7.1;75.8
69707;BME280;56975;55.726;37.566;2023-11-19T23:40:00;100050.0;;;-7.1;75.8
69707;BME280;56975;55.726;37.566;2023-11-19T23:45:00;100040.0;;;-7.1;75.2
69707;BME280;56975;55.726;37.566;2023-11-19T23:50:08;100030.0;;;-7.0;75.5
69707;BME280;56975;55.726;37.566;2023-11-19T23:55:00;100030.0;;;-7.1;75.8
